Terminal Aerodrome Forecast
Issued by NWS

Home | Current Version | Previous Version | Graphics & Text | Print | Product List | Glossary On
Versions: 1 2 3 4 5 6 7 8 9 10 11 12 13 14
000
FTUS43 KOAX 281136
TAFCDR
TAF
KCDR 281136Z 2812/2912 27013KT P6SM BKN080
     FM281600 31020G32KT P6SM BKN050
     FM282000 31023G35KT 4SM -RA OVC025
     FM290200 31012KT P6SM BKN040=

USA.gov is the U.S. government's official web portal to all federal, state and local government web resources and services.